Time;durP1;ratioP1;P1;durP2;ratioP2;P2;SDS_P1;SDS_P2;PMS_P1;PMS_P2;Temp;Humidity;BMP_temperature;BMP_pressure;BME280_temperature;BME280_humidity;BME280_pressure;Samples;Min_cycle;Max_cycle;Signal;HPM_P1;HPM_P2
2023/10/06 00:00:50;;;;;;;7.45;3.60;;;;;;;24.35;37.54;100499.09;4484510;32;33468;-68
2023/10/06 00:03:17;;;;;;;7.18;3.20;;;;;;;24.36;37.60;100494.47;4484349;32;34824;-66
2023/10/06 00:05:48;;;;;;;4.60;2.78;;;;;;;24.38;37.71;100495.13;4470282;32;33878;-67
2023/10/06 00:08:32;;;;;;;5.72;3.30;;;;;;;24.38;37.77;100506.03;4484376;32;34260;-67
2023/10/06 00:11:15;;;;;;;5.90;3.15;;;;;;;24.38;37.60;100504.13;4484289;32;33952;-67
2023/10/06 00:14:00;;;;;;;5.78;3.12;;;;;;;24.37;37.47;100499.75;4484116;32;34698;-68
2023/10/06 00:16:33;;;;;;;6.90;3.22;;;;;;;24.36;37.47;100505.37;4484257;32;34025;-67
2023/10/06 00:19:20;;;;;;;9.20;3.33;;;;;;;24.37;37.52;100502.47;4484260;32;34477;-65
2023/10/06 00:22:00;;;;;;;8.02;3.70;;;;;;;24.37;37.65;100499.75;4484318;32;34264;-70
2023/10/06 00:24:28;;;;;;;5.18;2.92;;;;;;;24.37;37.54;100501.63;4469860;32;34708;-67
2023/10/06 00:26:56;;;;;;;5.65;2.97;;;;;;;24.37;37.55;100507.09;4484208;32;33963;-69
2023/10/06 00:29:23;;;;;;;8.10;3.03;;;;;;;24.37;37.66;100512.53;4484143;32;34586;-65
2023/10/06 00:31:51;;;;;;;7.47;3.10;;;;;;;24.37;37.68;100504.38;4483905;32;33420;-68
2023/10/06 00:34:30;;;;;;;5.95;2.97;;;;;;;24.35;37.47;100510.00;4483950;32;34408;-64
2023/10/06 00:37:01;;;;;;;7.62;3.05;;;;;;;24.35;37.32;100507.28;4471156;32;34410;-66
2023/10/06 00:39:30;;;;;;;6.87;3.12;;;;;;;24.37;37.52;100512.53;4484292;32;33862;-65
2023/10/06 00:42:04;;;;;;;7.05;3.10;;;;;;;24.38;37.69;100503.31;4484005;32;33171;-68
2023/10/06 00:44:32;;;;;;;6.90;3.28;;;;;;;24.37;37.67;100510.66;4483758;32;33454;-68
2023/10/06 00:47:05;;;;;;;6.95;2.95;;;;;;;24.37;37.63;100507.09;4483880;32;33981;-67
2023/10/06 00:49:34;;;;;;;6.20;3.15;;;;;;;24.36;37.61;100508.97;4483692;32;33666;-67
2023/10/06 00:52:06;;;;;;;6.35;2.97;;;;;;;24.36;37.58;100514.44;4483794;32;33846;-65
2023/10/06 00:54:34;;;;;;;5.78;3.22;;;;;;;24.36;37.66;100517.16;4470264;32;33524;-69
2023/10/06 00:57:08;;;;;;;7.82;3.17;;;;;;;24.34;37.54;100511.06;4469438;32;33690;-67
2023/10/06 00:59:36;;;;;;;5.35;3.33;;;;;;;24.35;37.50;100506.44;4482448;32;34004;-66
2023/10/06 01:02:08;;;;;;;7.50;3.22;;;;;;;24.34;37.46;100500.16;4456694;32;33570;-68
2023/10/06 01:04:45;;;;;;;7.05;3.28;;;;;;;24.34;37.50;100507.47;4483363;32;33967;-66
2023/10/06 01:07:13;;;;;;;6.85;3.40;;;;;;;24.33;37.57;100505.81;4470104;32;33911;-65
2023/10/06 01:09:56;;;;;;;6.68;3.00;;;;;;;24.33;37.49;100503.09;4483394;32;34624;-66
2023/10/06 01:12:29;;;;;;;5.82;2.67;;;;;;;24.33;37.57;100505.81;4456726;32;33236;-65
2023/10/06 01:15:05;;;;;;;7.28;2.97;;;;;;;24.32;37.44;100512.31;4483287;32;34746;-65
2023/10/06 01:17:33;;;;;;;6.12;3.20;;;;;;;24.32;37.48;100504.97;4483493;32;34714;-67
2023/10/06 01:20:02;;;;;;;7.65;3.42;;;;;;;24.32;37.24;100506.88;4483388;32;33727;-64
2023/10/06 01:22:33;;;;;;;6.70;3.08;;;;;;;24.31;37.10;100502.47;4484861;32;34079;-68
2023/10/06 01:25:10;;;;;;;6.03;3.50;;;;;;;24.30;37.08;100500.81;4471627;32;33934;-65
2023/10/06 01:27:38;;;;;;;6.18;3.12;;;;;;;24.30;37.05;100503.53;4485300;32;33972;-66
2023/10/06 01:30:18;;;;;;;6.45;3.37;;;;;;;24.29;37.06;100499.94;4485487;32;34495;-67
2023/10/06 01:32:49;;;;;;;7.00;3.05;;;;;;;24.29;37.10;100510.00;4485418;32;33452;-66
2023/10/06 01:35:23;;;;;;;6.03;3.20;;;;;;;24.29;37.08;100507.28;4485447;32;33891;-68
2023/10/06 01:38:00;;;;;;;6.12;3.25;;;;;;;24.28;37.16;100514.63;4468509;32;34047;-65
2023/10/06 01:42:56;;;;;;;7.62;3.70;;;;;;;24.29;37.23;100523.66;4455608;32;33055;-68
2023/10/06 01:45:23;;;;;;;6.55;3.40;;;;;;;24.29;37.26;100526.38;4468284;32;33673;-65
2023/10/06 01:47:56;;;;;;;4.93;2.70;;;;;;;24.23;37.23;100522.63;4442438;32;33190;-69
2023/10/06 01:50:27;;;;;;;6.47;3.30;;;;;;;24.21;37.48;100515.72;4468340;32;34047;-67
2023/10/06 01:52:58;;;;;;;9.00;3.47;;;;;;;24.19;37.43;100515.94;4455195;32;33840;-67
2023/10/06 01:55:26;;;;;;;7.28;3.40;;;;;;;24.18;37.49;100526.00;4469581;32;33856;-66
2023/10/06 01:57:54;;;;;;;6.55;3.05;;;;;;;24.16;37.44;100528.13;4455453;32;33076;-69
2023/10/06 02:00:26;;;;;;;6.12;3.45;;;;;;;24.15;37.32;100533.75;4455362;32;33564;-69
2023/10/06 02:02:54;;;;;;;7.10;3.37;;;;;;;24.15;37.24;100533.75;4455501;32;33334;-66
2023/10/06 02:05:22;;;;;;;7.07;3.40;;;;;;;24.13;37.29;100531.25;4469545;32;35142;-67
2023/10/06 02:07:51;;;;;;;6.37;3.00;;;;;;;24.12;37.11;100539.66;4469470;32;34254;-70
2023/10/06 02:10:19;;;;;;;5.97;3.30;;;;;;;24.12;37.03;100540.50;4469336;32;33852;-68
2023/10/06 02:12:47;;;;;;;5.20;2.90;;;;;;;24.11;37.01;100543.44;4469539;32;33289;-69
2023/10/06 02:15:14;;;;;;;5.97;2.95;;;;;;;24.10;37.04;100553.47;4469326;32;33642;-66
2023/10/06 02:17:42;;;;;;;7.10;2.83;;;;;;;24.09;37.24;100549.09;4469384;32;33994;-68
2023/10/06 02:22:55;;;;;;;7.45;3.30;;;;;;;24.08;37.30;100546.59;4477246;32;33510;-67
2023/10/06 02:25:23;;;;;;;7.05;2.95;;;;;;;24.08;37.26;100536.50;4470632;32;33964;-68
2023/10/06 02:27:50;;;;;;;9.88;3.00;;;;;;;24.09;37.16;100542.81;4485402;32;33509;-68
2023/10/06 02:30:33;;;;;;;6.10;2.90;;;;;;;24.08;37.33;100535.69;4470455;32;33611;-67
2023/10/06 02:33:00;;;;;;;7.35;2.83;;;;;;;24.07;37.41;100543.03;4484468;32;33448;-67
2023/10/06 02:35:28;;;;;;;8.18;2.80;;;;;;;24.07;37.28;100537.56;4470719;32;34694;-67
2023/10/06 02:38:05;;;;;;;6.05;3.05;;;;;;;24.06;37.24;100548.66;4485188;32;33906;-67
2023/10/06 02:40:45;;;;;;;8.23;3.30;;;;;;;24.06;37.11;100552.25;4484598;32;34971;-68
2023/10/06 02:43:13;;;;;;;8.07;3.50;;;;;;;24.06;37.00;100552.25;4470779;32;33548;-69
2023/10/06 02:45:41;;;;;;;6.65;3.20;;;;;;;24.05;37.12;100556.00;4470689;32;33570;-64
2023/10/06 02:48:16;;;;;;;5.45;3.08;;;;;;;24.06;37.27;100554.12;4484728;32;33865;-67
2023/10/06 02:50:46;;;;;;;7.22;3.78;;;;;;;24.06;37.26;100554.97;4484331;32;33899;-66
2023/10/06 02:53:14;;;;;;;11.68;3.42;;;;;;;24.07;37.18;100558.56;4469860;32;33039;-67
2023/10/06 02:55:46;;;;;;;8.30;3.30;;;;;;;24.07;37.14;100551.19;4484839;32;33942;-67
2023/10/06 02:58:24;;;;;;;6.87;3.22;;;;;;;24.10;36.87;100548.03;4484535;32;34008;-68
2023/10/06 03:00:52;;;;;;;8.15;3.60;;;;;;;24.13;36.95;100555.78;4484494;32;33925;-67
2023/10/06 03:03:27;;;;;;;8.48;3.10;;;;;;;24.14;37.01;100557.47;4470669;32;34212;-68
2023/10/06 03:05:56;;;;;;;7.50;3.37;;;;;;;24.15;37.00;100559.16;4485030;32;33960;-68
2023/10/06 03:08:27;;;;;;;6.62;3.30;;;;;;;24.16;37.03;100560.00;4484785;32;34775;-68
2023/10/06 03:10:55;;;;;;;6.72;3.30;;;;;;;24.15;36.87;100556.44;4484326;32;33670;-67
2023/10/06 03:13:32;;;;;;;6.35;3.20;;;;;;;24.17;36.91;100558.94;4484690;32;33875;-68
2023/10/06 03:16:01;;;;;;;6.60;3.35;;;;;;;24.17;36.87;100557.06;4484885;32;34658;-68
2023/10/06 03:18:30;;;;;;;6.03;3.20;;;;;;;24.17;36.94;100565.22;4484926;32;35342;-67
2023/10/06 03:21:04;;;;;;;8.07;3.67;;;;;;;24.17;36.94;100562.50;4484335;32;33899;-68
2023/10/06 03:23:38;;;;;;;7.00;3.78;;;;;;;24.19;36.90;100565.00;4484668;32;32946;-67
2023/10/06 03:26:19;;;;;;;6.37;3.53;;;;;;;24.17;36.96;100553.50;4484700;32;33531;-67
2023/10/06 03:28:50;;;;;;;10.18;3.50;;;;;;;24.18;36.96;100550.53;4484775;32;33971;-68
2023/10/06 03:33:48;;;;;;;7.05;4.03;;;;;;;24.18;37.04;100552.44;4469097;32;33753;-68
2023/10/06 03:36:17;;;;;;;9.05;3.85;;;;;;;24.18;37.04;100558.72;4468890;32;33552;-67
2023/10/06 03:38:52;;;;;;;9.45;3.55;;;;;;;24.18;37.01;100556.00;4442180;32;33648;-68
2023/10/06 03:41:24;;;;;;;6.07;3.72;;;;;;;24.17;36.96;100554.31;4473790;32;33611;-69
2023/10/06 03:43:54;;;;;;;7.87;3.87;;;;;;;24.19;36.91;100554.09;4470029;32;33181;-67
2023/10/06 03:46:24;;;;;;;12.52;3.53;;;;;;;24.18;36.90;100561.44;4484775;32;33865;-68
2023/10/06 03:48:52;;;;;;;7.90;3.92;;;;;;;24.19;37.01;100563.13;4483888;32;33458;-67
2023/10/06 03:51:19;;;;;;;8.90;3.47;;;;;;;24.17;36.92;100559.78;4470237;32;33829;-68
2023/10/06 03:53:50;;;;;;;7.43;3.78;;;;;;;24.18;36.88;100561.44;4470361;32;33331;-68
2023/10/06 03:56:18;;;;;;;8.35;3.55;;;;;;;24.18;37.02;100563.34;4484471;32;33658;-68
2023/10/06 03:58:47;;;;;;;6.82;3.70;;;;;;;24.16;37.09;100563.56;4484166;32;34869;-68
2023/10/06 04:01:26;;;;;;;7.82;3.42;;;;;;;24.19;37.02;100562.28;4484254;32;33628;-67
2023/10/06 04:03:54;;;;;;;6.45;3.33;;;;;;;24.21;37.08;100560.19;4471628;32;33171;-67
2023/10/06 04:06:23;;;;;;;7.37;3.53;;;;;;;24.19;37.08;100557.66;4469878;32;34774;-67
2023/10/06 04:08:52;;;;;;;6.78;3.90;;;;;;;24.19;37.17;100565.00;4483657;32;33994;-68
2023/10/06 04:11:20;;;;;;;7.22;3.75;;;;;;;24.17;37.05;100557.06;4484582;32;33935;-67
2023/10/06 04:13:48;;;;;;;7.47;3.35;;;;;;;24.18;37.10;100566.06;4470189;32;33353;-66
2023/10/06 04:16:16;;;;;;;7.47;3.58;;;;;;;24.18;37.09;100566.06;4457455;32;33576;-67
2023/10/06 04:18:47;;;;;;;6.35;3.37;;;;;;;24.16;37.06;100565.44;4468541;32;32973;-67
2023/10/06 04:21:16;;;;;;;10.00;3.97;;;;;;;24.16;37.06;100558.09;4483957;32;34119;-68
2023/10/06 04:23:43;;;;;;;7.78;3.70;;;;;;;24.15;37.07;100561.88;4469932;32;33683;-66
2023/10/06 04:26:14;;;;;;;8.63;4.07;;;;;;;24.15;37.11;100569.22;4484203;32;33533;-68
2023/10/06 04:28:42;;;;;;;5.93;3.33;;;;;;;24.17;37.20;100575.31;4469984;32;34584;-68
2023/10/06 04:31:09;;;;;;;8.35;3.75;;;;;;;24.16;37.13;100569.00;4483865;32;33923;-66
2023/10/06 04:33:38;;;;;;;6.87;3.53;;;;;;;24.16;37.13;100574.47;4483696;32;33712;-70
2023/10/06 04:36:08;;;;;;;7.95;3.40;;;;;;;24.14;37.14;100568.38;4483404;32;34576;-69
2023/10/06 04:38:37;;;;;;;5.72;2.67;;;;;;;24.17;37.22;100570.69;4483338;32;34030;-67
2023/10/06 04:41:09;;;;;;;6.65;3.10;;;;;;;24.17;37.24;100567.13;4469624;32;34611;-67
2023/10/06 04:43:44;;;;;;;8.32;3.58;;;;;;;24.11;37.22;100571.53;4469642;32;32588;-66
2023/10/06 04:46:15;;;;;;;9.63;3.60;;;;;;;24.06;37.30;100568.63;4457956;32;33883;-65
2023/10/06 04:48:43;;;;;;;7.85;3.42;;;;;;;24.06;37.36;100578.66;4466364;32;33054;-68
2023/10/06 04:51:10;;;;;;;7.18;3.30;;;;;;;24.04;37.38;100578.88;4466475;32;33668;-70
2023/10/06 04:53:38;;;;;;;7.90;3.85;;;;;;;24.05;37.54;100577.00;4467980;32;34057;-68
2023/10/06 04:56:07;;;;;;;11.50;3.80;;;;;;;24.02;37.40;100577.44;4471014;32;33675;-68
2023/10/06 04:58:39;;;;;;;9.05;3.62;;;;;;;24.01;37.44;100587.47;4460059;32;33326;-67
2023/10/06 05:01:07;;;;;;;13.70;3.70;;;;;;;24.00;37.38;100580.34;4488522;32;34672;-68
2023/10/06 05:03:45;;;;;;;9.13;3.67;;;;;;;23.99;37.45;100586.84;4474333;32;33075;-67
2023/10/06 05:06:16;;;;;;;6.20;3.12;;;;;;;23.98;37.49;100582.47;4475705;32;34756;-67
2023/10/06 05:08:48;;;;;;;7.20;3.35;;;;;;;23.98;37.49;100593.37;4472586;32;34580;-67
2023/10/06 05:11:17;;;;;;;7.62;3.30;;;;;;;23.98;37.53;100590.63;4471735;32;35002;-68
2023/10/06 05:13:55;;;;;;;7.60;3.37;;;;;;;23.98;37.55;100596.09;4459076;32;33339;-67
2023/10/06 05:16:27;;;;;;;7.68;3.50;;;;;;;23.98;37.58;100600.72;4459973;32;33018;-68
2023/10/06 05:18:55;;;;;;;7.40;3.05;;;;;;;23.97;37.59;100607.19;4475210;32;34674;-68
2023/10/06 05:21:23;;;;;;;5.95;2.80;;;;;;;23.97;37.56;100616.22;4488509;32;33910;-68
2023/10/06 05:23:53;;;;;;;7.05;3.28;;;;;;;23.96;37.54;100614.53;4488352;32;33156;-68
2023/10/06 05:26:20;;;;;;;6.43;3.28;;;;;;;23.96;37.53;100619.97;4488304;32;33725;-68
2023/10/06 05:28:50;;;;;;;7.45;3.70;;;;;;;23.96;37.53;100625.44;4486780;32;34850;-68
2023/10/06 05:31:18;;;;;;;7.95;3.20;;;;;;;23.96;37.54;100635.50;4488643;32;33429;-68
2023/10/06 05:33:46;;;;;;;8.95;3.70;;;;;;;23.97;37.43;100626.25;4479211;32;33178;-66
2023/10/06 05:36:14;;;;;;;8.45;3.58;;;;;;;23.96;37.42;100628.16;4471576;32;33445;-66
2023/10/06 05:38:49;;;;;;;8.38;3.60;;;;;;;23.95;37.39;100631.94;4471706;32;33442;-66
2023/10/06 05:41:17;;;;;;;7.00;3.20;;;;;;;23.94;37.38;100652.06;4469575;32;33608;-66
2023/10/06 05:43:44;;;;;;;7.60;3.62;;;;;;;23.92;37.41;100646.84;4476888;32;33730;-66
2023/10/06 05:46:12;;;;;;;8.60;3.25;;;;;;;23.92;37.37;100652.28;4480179;32;33884;-66
2023/10/06 05:48:41;;;;;;;9.43;3.40;;;;;;;23.97;37.21;100657.13;4481051;32;33994;-65
2023/10/06 05:51:09;;;;;;;7.03;4.05;;;;;;;23.95;37.22;100656.47;4472448;32;33814;-67
2023/10/06 05:53:40;;;;;;;10.23;3.70;;;;;;;23.95;37.28;100663.81;4482184;32;33511;-67
2023/10/06 05:56:12;;;;;;;7.32;3.53;;;;;;;23.94;37.34;100660.25;4486997;32;34738;-66
2023/10/06 05:58:40;;;;;;;7.87;3.92;;;;;;;23.92;37.38;100662.31;4474056;32;33888;-67
2023/10/06 06:01:18;;;;;;;8.30;3.92;;;;;;;23.93;37.40;100672.22;4487994;32;34352;-66
2023/10/06 06:03:47;;;;;;;7.37;3.08;;;;;;;23.91;37.43;100669.66;4461809;32;32878;-66
2023/10/06 06:06:16;;;;;;;8.25;3.47;;;;;;;23.91;37.44;100668.84;4487497;32;33884;-67
2023/10/06 06:08:47;;;;;;;7.03;3.25;;;;;;;23.90;37.46;100668.00;4470594;32;34646;-66
2023/10/06 06:11:16;;;;;;;6.93;3.78;;;;;;;23.89;37.43;100673.66;4484421;32;33820;-66
2023/10/06 06:13:44;;;;;;;6.97;3.75;;;;;;;23.89;37.44;100676.41;4471040;32;33416;-67
2023/10/06 06:16:25;;;;;;;8.88;3.58;;;;;;;23.89;37.50;100673.66;4472616;32;33927;-66
2023/10/06 06:18:53;;;;;;;8.93;3.42;;;;;;;23.90;37.50;100680.78;4470617;32;33729;-66
2023/10/06 06:21:24;;;;;;;7.15;3.55;;;;;;;23.89;37.56;100679.12;4485289;32;33653;-66
2023/10/06 06:23:56;;;;;;;7.87;3.30;;;;;;;23.88;37.57;100672.00;4485104;32;34097;-66
2023/10/06 06:26:24;;;;;;;8.07;3.10;;;;;;;23.89;37.56;100673.66;4471261;32;33838;-66
2023/10/06 06:28:53;;;;;;;7.87;3.70;;;;;;;23.89;37.53;100681.84;4484997;32;34528;-66
2023/10/06 06:31:21;;;;;;;8.25;3.65;;;;;;;23.88;37.58;100681.00;4471140;32;33935;-66
2023/10/06 06:33:55;;;;;;;7.00;3.42;;;;;;;23.88;37.62;100682.91;4485077;32;34304;-66
2023/10/06 06:36:26;;;;;;;7.57;3.80;;;;;;;23.88;37.63;100682.91;4458585;32;32559;-66
2023/10/06 06:38:54;;;;;;;7.87;3.53;;;;;;;23.88;37.58;100688.34;4467694;32;34790;-66
2023/10/06 06:41:21;;;;;;;8.50;4.10;;;;;;;23.89;37.61;100695.47;4477075;32;33666;-66
2023/10/06 06:43:54;;;;;;;7.57;3.08;;;;;;;23.88;37.61;100697.38;4473648;32;33945;-66
2023/10/06 06:46:22;;;;;;;7.78;3.35;;;;;;;23.88;37.59;100701.97;4484939;32;33773;-66
2023/10/06 06:48:49;;;;;;;8.48;3.55;;;;;;;23.87;37.66;100703.84;4484523;32;34032;-67
2023/10/06 06:51:18;;;;;;;9.15;3.33;;;;;;;23.87;37.67;100703.84;4470635;32;33646;-67
2023/10/06 06:53:47;;;;;;;6.85;3.37;;;;;;;23.86;37.68;100710.34;4444981;32;32366;-67
2023/10/06 06:56:17;;;;;;;8.57;3.40;;;;;;;23.87;37.73;100716.62;4470382;32;33123;-66
2023/10/06 06:58:46;;;;;;;6.55;3.33;;;;;;;23.87;37.65;100724.81;4484691;32;33536;-67
2023/10/06 07:01:16;;;;;;;8.10;3.50;;;;;;;23.87;37.65;100716.62;4477027;32;34673;-66
2023/10/06 07:03:44;;;;;;;6.45;2.80;;;;;;;23.87;37.69;100725.63;4469220;32;33599;-66
2023/10/06 07:06:14;;;;;;;6.72;3.17;;;;;;;23.87;37.75;100727.53;4469022;32;34698;-66
2023/10/06 07:08:43;;;;;;;6.15;3.28;;;;;;;23.87;37.67;100727.53;4455013;32;34672;-66
2023/10/06 07:11:12;;;;;;;;;;;;;;;23.87;37.65;100728.37;4469499;32;34355;-66
2023/10/06 07:13:42;;;;;;;10.02;3.67;;;;;;;23.95;37.54;100735.53;4469127;32;32766;-66
2023/10/06 07:16:09;;;;;;;7.25;3.95;;;;;;;23.87;37.58;100736.53;4468812;32;33640;-66
2023/10/06 07:18:38;;;;;;;8.18;3.58;;;;;;;23.87;37.67;100735.72;4466659;32;33861;-67
2023/10/06 07:21:08;;;;;;;7.10;3.42;;;;;;;23.85;37.67;100738.66;4469214;32;33485;-66
2023/10/06 07:23:37;;;;;;;9.82;3.55;;;;;;;23.84;37.69;100731.53;4467614;32;33112;-66
2023/10/06 07:26:10;;;;;;;9.77;3.50;;;;;;;23.86;37.71;100734.03;4455202;32;34678;-66
2023/10/06 07:28:39;;;;;;;8.48;3.70;;;;;;;23.86;37.83;100739.50;4467619;32;34440;-67
2023/10/06 07:31:11;;;;;;;6.93;3.85;;;;;;;23.84;37.79;100736.16;4467738;32;33570;-66
2023/10/06 07:33:39;;;;;;;8.90;3.83;;;;;;;23.84;37.84;100734.25;4454967;32;33353;-66
2023/10/06 07:36:13;;;;;;;8.70;4.35;;;;;;;23.85;37.65;100743.25;4454731;32;33990;-66
2023/10/06 07:38:41;;;;;;;8.70;3.85;;;;;;;23.85;37.44;100743.25;4474975;32;33742;-66
2023/10/06 07:41:16;;;;;;;8.57;3.90;;;;;;;23.84;37.44;100741.59;4481293;32;33895;-66
2023/10/06 07:43:48;;;;;;;8.95;4.22;;;;;;;23.87;37.45;100752.06;4484481;32;33232;-66
2023/10/06 07:46:16;;;;;;;8.20;3.50;;;;;;;23.91;37.27;100756.91;4470836;32;34003;-66
2023/10/06 07:48:45;;;;;;;10.48;3.92;;;;;;;23.92;37.28;100750.41;4469679;32;33911;-66
2023/10/06 07:51:13;;;;;;;7.53;3.60;;;;;;;23.93;37.26;100748.53;4470477;32;33886;-66
2023/10/06 07:53:41;;;;;;;7.35;3.72;;;;;;;23.95;37.42;100751.03;4484527;32;32843;-66
2023/10/06 07:56:11;;;;;;;7.70;3.35;;;;;;;23.91;37.50;100753.34;4479565;32;34229;-66
2023/10/06 07:58:41;;;;;;;7.53;3.75;;;;;;;23.88;37.57;100754.59;4467615;32;33865;-66
2023/10/06 08:01:08;;;;;;;6.93;3.75;;;;;;;23.88;37.64;100748.31;4467506;32;34457;-66
2023/10/06 08:03:38;;;;;;;8.90;3.92;;;;;;;23.88;37.62;100754.59;4467609;32;34107;-66
2023/10/06 08:06:06;;;;;;;9.48;4.18;;;;;;;23.86;37.42;100761.28;4467452;32;33961;-66
2023/10/06 08:08:34;;;;;;;7.45;3.37;;;;;;;23.85;37.09;100760.47;4467601;32;33922;-67
2023/10/06 08:11:02;;;;;;;8.02;3.80;;;;;;;23.83;37.21;100762.56;4464712;32;33945;-68
2023/10/06 08:13:36;;;;;;;9.80;3.67;;;;;;;23.83;37.21;100761.72;4457376;32;33125;-68
2023/10/06 08:16:06;;;;;;;7.05;3.40;;;;;;;23.82;37.14;100765.47;4470650;32;34676;-68
2023/10/06 08:18:34;;;;;;;9.23;3.85;;;;;;;23.82;37.11;100768.19;4462278;32;33718;-68
2023/10/06 08:21:03;;;;;;;7.07;3.58;;;;;;;23.81;36.98;100772.81;4468591;32;33813;-68
2023/10/06 08:23:37;;;;;;;11.57;3.73;;;;;;;23.80;37.15;100779.31;4454054;32;33444;-68
2023/10/06 08:26:08;;;;;;;8.88;3.72;;;;;;;23.80;36.86;100778.47;4443097;32;33547;-68
2023/10/06 08:28:37;;;;;;;10.15;3.92;;;;;;;23.79;36.87;100774.06;4460764;32;33983;-68
2023/10/06 08:31:04;;;;;;;7.95;3.72;;;;;;;23.79;37.00;100774.91;4483290;32;33984;-68
2023/10/06 08:33:32;;;;;;;9.68;3.67;;;;;;;23.77;37.04;100774.25;4469860;32;34308;-68
2023/10/06 08:36:02;;;;;;;8.57;3.90;;;;;;;23.78;37.18;100783.28;4483887;32;33849;-68
2023/10/06 08:38:32;;;;;;;10.30;4.15;;;;;;;23.78;36.98;100780.56;4478200;32;34859;-68
2023/10/06 08:41:01;;;;;;;9.95;4.22;;;;;;;23.78;36.94;100777.81;4468644;32;33649;-68
2023/10/06 08:43:32;;;;;;;8.00;3.80;;;;;;;23.78;37.00;100777.81;4466871;32;34105;-68
2023/10/06 08:46:00;;;;;;;12.05;3.97;;;;;;;23.78;37.13;100777.81;4456812;32;33484;-68
2023/10/06 08:48:31;;;;;;;8.68;4.03;;;;;;;23.79;37.04;100784.97;4466874;32;33940;-68
2023/10/06 08:51:03;;;;;;;9.18;4.12;;;;;;;23.78;36.82;100775.97;4454238;32;33845;-68
2023/10/06 08:53:31;;;;;;;8.30;3.78;;;;;;;23.78;36.46;100788.72;4468252;32;33481;-67
2023/10/06 08:55:59;;;;;;;7.90;3.97;;;;;;;23.74;36.33;100777.41;4428371;32;32784;-68
2023/10/06 08:58:27;;;;;;;7.93;3.92;;;;;;;23.74;36.49;100780.16;4454117;32;33961;-68
2023/10/06 09:00:55;;;;;;;7.90;4.18;;;;;;;23.75;36.70;100775.53;4468438;32;33542;-68
2023/10/06 09:03:23;;;;;;;9.25;3.87;;;;;;;23.74;36.91;100784.75;4453711;32;33375;-68
2023/10/06 09:05:55;;;;;;;10.32;4.05;;;;;;;23.75;36.90;100775.53;4467973;32;33988;-68
2023/10/06 09:08:23;;;;;;;9.07;3.83;;;;;;;23.74;36.93;100777.41;4453911;32;33588;-68
2023/10/06 09:10:53;;;;;;;8.13;3.85;;;;;;;23.74;36.95;100771.12;4467779;32;33799;-68
2023/10/06 09:13:21;;;;;;;8.98;4.00;;;;;;;23.74;36.98;100771.97;4441267;32;34093;-68
2023/10/06 09:16:02;;;;;;;8.73;3.55;;;;;;;23.77;37.10;100767.97;4467829;32;33591;-67
2023/10/06 09:18:34;;;;;;;9.20;3.83;;;;;;;23.78;37.05;100778.69;4454246;32;34041;-68
2023/10/06 09:21:12;;;;;;;8.68;3.42;;;;;;;23.76;36.99;100778.03;4454097;32;34747;-67
2023/10/06 09:23:40;;;;;;;9.10;4.07;;;;;;;23.78;37.04;100775.97;4467316;32;33789;-67
2023/10/06 09:26:11;;;;;;;7.55;3.97;;;;;;;23.76;37.02;100769.88;4453416;32;33792;-68
2023/10/06 09:28:50;;;;;;;8.18;3.58;;;;;;;23.77;37.06;100773.44;4453623;32;33757;-68
2023/10/06 09:31:35;;;;;;;7.68;3.80;;;;;;;23.78;37.09;100772.37;4467658;32;33224;-68
2023/10/06 09:34:09;;;;;;;10.57;3.97;;;;;;;23.82;37.06;100777.22;4440579;32;33372;-68
2023/10/06 09:36:42;;;;;;;8.05;3.50;;;;;;;23.79;37.10;100765.91;4442226;32;33862;-68
2023/10/06 09:39:19;;;;;;;9.00;4.07;;;;;;;23.78;37.17;100764.19;4454082;32;34717;-66
2023/10/06 09:41:48;;;;;;;10.25;3.62;;;;;;;23.80;37.17;100767.56;4453996;32;34266;-68
2023/10/06 09:44:18;;;;;;;8.02;3.55;;;;;;;23.80;37.17;100762.13;4469702;32;34379;-68
2023/10/06 09:46:45;;;;;;;10.38;3.85;;;;;;;23.80;37.15;100764.84;4442984;32;33445;-68
2023/10/06 09:49:18;;;;;;;7.37;4.03;;;;;;;23.81;37.13;100753.72;4461968;32;34148;-66
2023/10/06 09:51:45;;;;;;;8.05;3.72;;;;;;;23.80;37.19;100751.22;4456616;32;33883;-66
2023/10/06 09:54:14;;;;;;;7.05;3.80;;;;;;;23.86;37.08;100753.13;4468390;32;33413;-66
2023/10/06 09:56:42;;;;;;;8.27;3.53;;;;;;;23.89;36.61;100759.00;4457303;32;34766;-66
2023/10/06 09:59:13;;;;;;;5.97;3.45;;;;;;;23.92;36.34;100747.69;4470811;32;34803;-66
2023/10/06 10:01:42;;;;;;;6.97;3.40;;;;;;;23.91;35.63;100743.25;4485230;32;33950;-66
2023/10/06 10:04:11;;;;;;;6.50;3.08;;;;;;;23.92;35.79;100741.38;4458426;32;33364;-67
2023/10/06 10:06:46;;;;;;;6.85;3.92;;;;;;;23.92;36.17;100741.38;4458330;32;34581;-67
2023/10/06 10:09:17;;;;;;;7.90;3.80;;;;;;;23.92;36.02;100742.25;4485115;32;34765;-66
2023/10/06 10:12:00;;;;;;;7.40;3.47;;;;;;;23.92;35.57;100744.97;4483611;32;33643;-66
2023/10/06 10:14:49;;;;;;;6.90;3.40;;;;;;;23.95;35.40;100743.69;4471501;32;34395;-68
2023/10/06 10:17:33;;;;;;;5.78;2.95;;;;;;;23.95;35.07;100735.53;4485056;32;33713;-66
2023/10/06 10:20:01;;;;;;;7.28;3.10;;;;;;;23.92;35.46;100723.16;4485049;32;33953;-67
2023/10/06 10:22:31;;;;;;;6.45;2.90;;;;;;;23.91;35.76;100716.00;4484881;32;34699;-66
2023/10/06 10:25:05;;;;;;;6.18;2.65;;;;;;;23.87;35.78;100717.47;4458187;32;33132;-66
2023/10/06 10:28:16;;;;;;;9.75;3.20;;;;;;;23.88;35.49;100705.53;4485002;32;33830;-67
2023/10/06 10:30:57;;;;;;;5.43;2.62;;;;;;;23.94;35.34;100698.41;4471414;31;33467;-66
2023/10/06 10:33:33;;;;;;;6.43;3.00;;;;;;;23.92;35.27;100693.19;4470969;32;33830;-65
2023/10/06 10:36:13;;;;;;;5.57;2.70;;;;;;;23.88;35.28;100691.06;4471161;32;33452;-65
2023/10/06 10:38:41;;;;;;;6.75;2.78;;;;;;;23.86;35.41;100694.00;4484731;32;33805;-67
2023/10/06 10:41:09;;;;;;;6.15;2.87;;;;;;;23.84;35.64;100693.38;4470890;32;33856;-67
2023/10/06 10:43:37;;;;;;;6.60;2.92;;;;;;;23.82;35.29;100690.00;4484913;32;33194;-66
2023/10/06 10:46:08;;;;;;;5.32;2.40;;;;;;;23.83;34.78;100685.41;4485224;32;33326;-66
2023/10/06 10:48:47;;;;;;;5.35;2.40;;;;;;;23.84;34.76;100684.37;4484563;31;34724;-66
2023/10/06 10:51:21;;;;;;;5.57;2.30;;;;;;;23.83;34.66;100679.97;4481873;32;33726;-68
2023/10/06 10:53:50;;;;;;;5.80;2.30;;;;;;;23.83;34.31;100679.97;4474903;32;33427;-67
2023/10/06 10:56:33;;;;;;;6.70;2.60;;;;;;;23.82;34.30;100675.53;4478539;32;33437;-68
2023/10/06 10:59:02;;;;;;;5.85;2.80;;;;;;;23.87;34.33;100679.31;4470788;32;33941;-68
2023/10/06 11:01:42;;;;;;;7.10;2.92;;;;;;;23.91;34.81;100677.84;4484861;32;33572;-69
2023/10/06 11:04:09;;;;;;;5.00;2.35;;;;;;;23.88;35.03;100677.44;4483677;32;33971;-67
2023/10/06 11:06:44;;;;;;;5.10;2.35;;;;;;;23.87;34.71;100675.75;4484686;32;33544;-67
2023/10/06 11:12:00;;;;;;;6.68;2.75;;;;;;;23.84;34.65;100674.28;4484511;32;34484;-67
2023/10/06 11:14:51;;;;;;;4.35;2.03;;;;;;;23.83;34.49;100661.72;4473370;32;34069;-67
2023/10/06 11:17:23;;;;;;;5.85;2.42;;;;;;;23.84;34.28;100666.12;4483509;32;34198;-65
2023/10/06 11:20:33;;;;;;;5.07;2.35;;;;;;;23.84;34.53;100662.56;4483550;32;33693;-66
2023/10/06 11:23:01;;;;;;;5.13;2.33;;;;;;;23.87;34.96;100665.69;4484790;32;33556;-66
2023/10/06 11:25:30;;;;;;;6.55;2.50;;;;;;;23.86;35.11;100663.16;4484558;32;33824;-66
2023/10/06 11:28:06;;;;;;;8.00;2.37;;;;;;;23.85;34.96;100656.06;4483679;32;32641;-66
2023/10/06 11:30:36;;;;;;;5.12;2.40;;;;;;;23.85;34.89;100662.34;4483339;32;34493;-66
2023/10/06 11:33:05;;;;;;;4.95;2.53;;;;;;;23.84;34.71;100662.56;4483268;32;34853;-68
2023/10/06 11:35:34;;;;;;;7.57;2.53;;;;;;;23.85;34.64;100661.50;4468911;32;34712;-66
2023/10/06 11:38:03;;;;;;;5.65;2.35;;;;;;;23.86;35.05;100657.72;4484320;32;33569;-66
2023/10/06 11:40:31;;;;;;;5.45;2.55;;;;;;;23.86;35.19;100655.00;4483421;32;33906;-66
2023/10/06 11:43:23;;;;;;;5.53;2.60;;;;;;;23.85;34.42;100662.34;4484465;32;33675;-66
2023/10/06 11:46:01;;;;;;;5.93;2.65;;;;;;;23.89;34.62;100651.88;4483337;32;33788;-66
2023/10/06 11:48:29;;;;;;;5.50;2.00;;;;;;;23.87;35.12;100649.31;4482719;32;33720;-68
2023/10/06 11:51:00;;;;;;;7.57;2.55;;;;;;;23.87;34.84;100643.03;4482035;32;33512;-68
2023/10/06 11:53:27;;;;;;;5.45;2.08;;;;;;;23.89;34.05;100640.97;4483328;32;34210;-68